sensor_id;sensor_type;location;lat;lon;timestamp;P1;durP1;ratioP1;P2;durP2;ratioP2
23402;SDS011;11874;48.228;11.684;2022-08-03T00:01:41;3.58;;;1.95;;
23402;SDS011;11874;48.228;11.684;2022-08-03T00:04:09;2.90;;;1.80;;
23402;SDS011;11874;48.228;11.684;2022-08-03T00:06:37;4.13;;;2.53;;
23402;SDS011;11874;48.228;11.684;2022-08-03T00:09:07;4.03;;;2.00;;
23402;SDS011;11874;48.228;11.684;2022-08-03T00:11:36;2.30;;;2.10;;
23402;SDS011;11874;48.228;11.684;2022-08-03T00:14:04;4.45;;;2.05;;
23402;SDS011;11874;48.228;11.684;2022-08-03T00:16:33;5.93;;;2.10;;
23402;SDS011;11874;48.228;11.684;2022-08-03T00:19:01;5.88;;;2.33;;
23402;SDS011;11874;48.228;11.684;2022-08-03T00:21:29;2.65;;;2.25;;
23402;SDS011;11874;48.228;11.684;2022-08-03T00:23:57;4.55;;;2.20;;
23402;SDS011;11874;48.228;11.684;2022-08-03T00:26:26;4.93;;;2.30;;
23402;SDS011;11874;48.228;11.684;2022-08-03T00:28:54;3.97;;;2.30;;
23402;SDS011;11874;48.228;11.684;2022-08-03T00:31:22;6.10;;;2.20;;
23402;SDS011;11874;48.228;11.684;2022-08-03T00:34:10;5.00;;;2.58;;
23402;SDS011;11874;48.228;11.684;2022-08-03T00:36:37;5.10;;;2.25;;
23402;SDS011;11874;48.228;11.684;2022-08-03T00:39:06;3.25;;;2.20;;
23402;SDS011;11874;48.228;11.684;2022-08-03T00:41:35;3.58;;;1.90;;
23402;SDS011;11874;48.228;11.684;2022-08-03T00:44:03;3.60;;;2.55;;
23402;SDS011;11874;48.228;11.684;2022-08-03T00:46:36;3.72;;;2.60;;
23402;SDS011;11874;48.228;11.684;2022-08-03T00:49:09;3.00;;;2.17;;
23402;SDS011;11874;48.228;11.684;2022-08-03T00:51:37;2.88;;;2.30;;
23402;SDS011;11874;48.228;11.684;2022-08-03T00:54:05;5.53;;;2.40;;
23402;SDS011;11874;48.228;11.684;2022-08-03T00:56:34;5.18;;;2.40;;
23402;SDS011;11874;48.228;11.684;2022-08-03T00:59:23;8.85;;;2.60;;
23402;SDS011;11874;48.228;11.684;2022-08-03T01:01:52;5.60;;;2.30;;
23402;SDS011;11874;48.228;11.684;2022-08-03T01:04:20;6.13;;;2.38;;
23402;SDS011;11874;48.228;11.684;2022-08-03T01:06:49;4.40;;;2.55;;
23402;SDS011;11874;48.228;11.684;2022-08-03T01:09:22;5.50;;;2.10;;
23402;SDS011;11874;48.228;11.684;2022-08-03T01:12:02;4.03;;;2.23;;
23402;SDS011;11874;48.228;11.684;2022-08-03T01:14:37;5.40;;;2.00;;
23402;SDS011;11874;48.228;11.684;2022-08-03T01:17:09;4.10;;;2.27;;
23402;SDS011;11874;48.228;11.684;2022-08-03T01:19:44;3.70;;;2.53;;
23402;SDS011;11874;48.228;11.684;2022-08-03T01:22:20;5.30;;;1.70;;
23402;SDS011;11874;48.228;11.684;2022-08-03T01:25:05;3.08;;;1.95;;
23402;SDS011;11874;48.228;11.684;2022-08-03T01:27:42;6.28;;;2.15;;
23402;SDS011;11874;48.228;11.684;2022-08-03T01:30:22;4.18;;;2.33;;
23402;SDS011;11874;48.228;11.684;2022-08-03T01:32:54;5.38;;;2.17;;
23402;SDS011;11874;48.228;11.684;2022-08-03T01:35:28;2.20;;;2.00;;
23402;SDS011;11874;48.228;11.684;2022-08-03T01:38:06;2.20;;;2.00;;
23402;SDS011;11874;48.228;11.684;2022-08-03T01:40:38;6.75;;;2.08;;
23402;SDS011;11874;48.228;11.684;2022-08-03T01:43:08;2.22;;;1.95;;
23402;SDS011;11874;48.228;11.684;2022-08-03T01:45:41;2.53;;;1.85;;
23402;SDS011;11874;48.228;11.684;2022-08-03T01:48:10;2.17;;;1.98;;
23402;SDS011;11874;48.228;11.684;2022-08-03T01:50:41;2.13;;;1.80;;
23402;SDS011;11874;48.228;11.684;2022-08-03T01:53:12;2.70;;;1.90;;
23402;SDS011;11874;48.228;11.684;2022-08-03T01:55:41;2.70;;;2.17;;
23402;SDS011;11874;48.228;11.684;2022-08-03T01:58:10;2.53;;;2.10;;
23402;SDS011;11874;48.228;11.684;2022-08-03T02:00:42;4.75;;;2.00;;
23402;SDS011;11874;48.228;11.684;2022-08-03T02:03:13;2.95;;;1.75;;
23402;SDS011;11874;48.228;11.684;2022-08-03T02:05:42;3.78;;;1.77;;
23402;SDS011;11874;48.228;11.684;2022-08-03T02:08:12;3.03;;;1.92;;
23402;SDS011;11874;48.228;11.684;2022-08-03T02:10:42;2.78;;;1.98;;
23402;SDS011;11874;48.228;11.684;2022-08-03T02:13:12;3.50;;;1.83;;
23402;SDS011;11874;48.228;11.684;2022-08-03T02:15:42;2.92;;;2.10;;
23402;SDS011;11874;48.228;11.684;2022-08-03T02:18:10;3.88;;;1.95;;
23402;SDS011;11874;48.228;11.684;2022-08-03T02:20:40;3.92;;;1.98;;
23402;SDS011;11874;48.228;11.684;2022-08-03T02:23:09;2.75;;;2.03;;
23402;SDS011;11874;48.228;11.684;2022-08-03T02:25:38;2.15;;;1.75;;
23402;SDS011;11874;48.228;11.684;2022-08-03T02:28:10;2.35;;;1.73;;
23402;SDS011;11874;48.228;11.684;2022-08-03T02:30:46;3.75;;;1.90;;
23402;SDS011;11874;48.228;11.684;2022-08-03T02:33:20;2.67;;;1.90;;
23402;SDS011;11874;48.228;11.684;2022-08-03T02:35:53;5.68;;;1.85;;
23402;SDS011;11874;48.228;11.684;2022-08-03T02:38:22;2.22;;;1.80;;
23402;SDS011;11874;48.228;11.684;2022-08-03T02:40:54;3.30;;;1.98;;
23402;SDS011;11874;48.228;11.684;2022-08-03T02:43:24;4.05;;;1.90;;
23402;SDS011;11874;48.228;11.684;2022-08-03T02:46:05;3.28;;;1.70;;
23402;SDS011;11874;48.228;11.684;2022-08-03T02:48:35;4.90;;;2.50;;
23402;SDS011;11874;48.228;11.684;2022-08-03T02:51:04;4.40;;;3.83;;
23402;SDS011;11874;48.228;11.684;2022-08-03T02:53:32;5.15;;;4.15;;
23402;SDS011;11874;48.228;11.684;2022-08-03T02:56:01;5.95;;;4.13;;
23402;SDS011;11874;48.228;11.684;2022-08-03T02:58:30;6.03;;;3.92;;
23402;SDS011;11874;48.228;11.684;2022-08-03T03:00:58;4.70;;;3.63;;
23402;SDS011;11874;48.228;11.684;2022-08-03T03:03:29;4.05;;;3.30;;
23402;SDS011;11874;48.228;11.684;2022-08-03T03:06:09;3.28;;;2.83;;
23402;SDS011;11874;48.228;11.684;2022-08-03T03:08:40;2.85;;;2.38;;
23402;SDS011;11874;48.228;11.684;2022-08-03T03:11:08;3.72;;;1.80;;
23402;SDS011;11874;48.228;11.684;2022-08-03T03:13:37;3.13;;;2.00;;
23402;SDS011;11874;48.228;11.684;2022-08-03T03:16:06;3.60;;;2.00;;
23402;SDS011;11874;48.228;11.684;2022-08-03T03:18:36;2.72;;;1.90;;
23402;SDS011;11874;48.228;11.684;2022-08-03T03:21:06;3.88;;;1.90;;
23402;SDS011;11874;48.228;11.684;2022-08-03T03:23:36;4.45;;;2.20;;
23402;SDS011;11874;48.228;11.684;2022-08-03T03:26:06;2.42;;;2.03;;
23402;SDS011;11874;48.228;11.684;2022-08-03T03:28:34;4.65;;;1.85;;
23402;SDS011;11874;48.228;11.684;2022-08-03T03:31:03;4.88;;;1.92;;
23402;SDS011;11874;48.228;11.684;2022-08-03T03:33:32;2.35;;;1.52;;
23402;SDS011;11874;48.228;11.684;2022-08-03T03:36:02;2.60;;;1.98;;
23402;SDS011;11874;48.228;11.684;2022-08-03T03:38:31;3.70;;;1.85;;
23402;SDS011;11874;48.228;11.684;2022-08-03T03:40:59;2.10;;;1.42;;
23402;SDS011;11874;48.228;11.684;2022-08-03T03:43:28;3.95;;;1.77;;
23402;SDS011;11874;48.228;11.684;2022-08-03T03:45:56;2.35;;;1.70;;
23402;SDS011;11874;48.228;11.684;2022-08-03T03:48:25;2.17;;;1.70;;
23402;SDS011;11874;48.228;11.684;2022-08-03T03:50:53;4.55;;;1.65;;
23402;SDS011;11874;48.228;11.684;2022-08-03T03:53:23;2.45;;;1.60;;
23402;SDS011;11874;48.228;11.684;2022-08-03T03:55:51;2.58;;;1.73;;
23402;SDS011;11874;48.228;11.684;2022-08-03T03:58:27;3.83;;;2.00;;
23402;SDS011;11874;48.228;11.684;2022-08-03T04:00:56;2.03;;;1.75;;
23402;SDS011;11874;48.228;11.684;2022-08-03T04:03:24;3.03;;;1.60;;
23402;SDS011;11874;48.228;11.684;2022-08-03T04:05:52;3.08;;;1.95;;
23402;SDS011;11874;48.228;11.684;2022-08-03T04:08:40;2.70;;;1.70;;
23402;SDS011;11874;48.228;11.684;2022-08-03T04:11:26;2.50;;;1.73;;
23402;SDS011;11874;48.228;11.684;2022-08-03T04:13:59;1.80;;;1.70;;
23402;SDS011;11874;48.228;11.684;2022-08-03T04:16:31;3.50;;;1.90;;
23402;SDS011;11874;48.228;11.684;2022-08-03T04:19:09;3.38;;;1.77;;
23402;SDS011;11874;48.228;11.684;2022-08-03T04:21:46;3.75;;;2.00;;
23402;SDS011;11874;48.228;11.684;2022-08-03T04:24:16;5.05;;;2.10;;
23402;SDS011;11874;48.228;11.684;2022-08-03T04:26:51;7.38;;;2.45;;
23402;SDS011;11874;48.228;11.684;2022-08-03T04:29:20;7.70;;;2.75;;
23402;SDS011;11874;48.228;11.684;2022-08-03T04:31:51;8.50;;;2.40;;
23402;SDS011;11874;48.228;11.684;2022-08-03T04:34:20;6.85;;;2.35;;
23402;SDS011;11874;48.228;11.684;2022-08-03T04:36:48;6.82;;;2.58;;
23402;SDS011;11874;48.228;11.684;2022-08-03T04:39:23;10.38;;;2.58;;
23402;SDS011;11874;48.228;11.684;2022-08-03T04:41:54;5.97;;;2.90;;
23402;SDS011;11874;48.228;11.684;2022-08-03T04:44:42;8.20;;;2.10;;
23402;SDS011;11874;48.228;11.684;2022-08-03T04:47:11;6.47;;;2.20;;
23402;SDS011;11874;48.228;11.684;2022-08-03T04:49:40;7.10;;;2.38;;
23402;SDS011;11874;48.228;11.684;2022-08-03T04:52:08;7.15;;;2.70;;
23402;SDS011;11874;48.228;11.684;2022-08-03T04:54:41;8.57;;;3.28;;
23402;SDS011;11874;48.228;11.684;2022-08-03T04:57:16;13.45;;;3.50;;
23402;SDS011;11874;48.228;11.684;2022-08-03T04:59:48;15.55;;;4.25;;
23402;SDS011;11874;48.228;11.684;2022-08-03T05:02:27;15.93;;;4.30;;
23402;SDS011;11874;48.228;11.684;2022-08-03T05:04:56;8.57;;;3.83;;
23402;SDS011;11874;48.228;11.684;2022-08-03T05:07:24;9.50;;;3.67;;
23402;SDS011;11874;48.228;11.684;2022-08-03T05:10:03;11.88;;;3.60;;
23402;SDS011;11874;48.228;11.684;2022-08-03T05:12:41;9.32;;;3.50;;
23402;SDS011;11874;48.228;11.684;2022-08-03T05:15:10;12.82;;;4.68;;
23402;SDS011;11874;48.228;11.684;2022-08-03T05:17:38;16.65;;;4.65;;
23402;SDS011;11874;48.228;11.684;2022-08-03T05:20:07;16.08;;;4.38;;
23402;SDS011;11874;48.228;11.684;2022-08-03T05:22:36;12.95;;;5.00;;
23402;SDS011;11874;48.228;11.684;2022-08-03T05:25:05;23.90;;;5.72;;
23402;SDS011;11874;48.228;11.684;2022-08-03T05:27:33;15.75;;;4.60;;
23402;SDS011;11874;48.228;11.684;2022-08-03T05:30:02;19.80;;;4.85;;
23402;SDS011;11874;48.228;11.684;2022-08-03T05:32:50;15.00;;;4.90;;
23402;SDS011;11874;48.228;11.684;2022-08-03T05:35:19;14.15;;;4.60;;
23402;SDS011;11874;48.228;11.684;2022-08-03T05:38:07;14.20;;;4.47;;
23402;SDS011;11874;48.228;11.684;2022-08-03T05:40:37;13.23;;;3.90;;
23402;SDS011;11874;48.228;11.684;2022-08-03T05:43:22;13.57;;;3.70;;
23402;SDS011;11874;48.228;11.684;2022-08-03T05:45:50;11.55;;;3.75;;
23402;SDS011;11874;48.228;11.684;2022-08-03T05:48:37;10.10;;;3.53;;
23402;SDS011;11874;48.228;11.684;2022-08-03T05:51:05;12.90;;;3.53;;
23402;SDS011;11874;48.228;11.684;2022-08-03T05:53:36;10.27;;;3.13;;
23402;SDS011;11874;48.228;11.684;2022-08-03T05:56:06;8.35;;;3.35;;
23402;SDS011;11874;48.228;11.684;2022-08-03T05:58:41;8.70;;;3.22;;
23402;SDS011;11874;48.228;11.684;2022-08-03T06:01:09;12.52;;;4.13;;
23402;SDS011;11874;48.228;11.684;2022-08-03T06:03:37;7.38;;;3.50;;
23402;SDS011;11874;48.228;11.684;2022-08-03T06:06:05;9.98;;;3.45;;
23402;SDS011;11874;48.228;11.684;2022-08-03T06:08:33;10.50;;;3.42;;
23402;SDS011;11874;48.228;11.684;2022-08-03T06:11:01;10.30;;;3.00;;
23402;SDS011;11874;48.228;11.684;2022-08-03T06:13:31;10.68;;;3.10;;
23402;SDS011;11874;48.228;11.684;2022-08-03T06:15:59;8.88;;;3.35;;
23402;SDS011;11874;48.228;11.684;2022-08-03T06:18:27;5.38;;;2.92;;
23402;SDS011;11874;48.228;11.684;2022-08-03T06:20:55;6.72;;;3.05;;
23402;SDS011;11874;48.228;11.684;2022-08-03T06:23:40;6.45;;;2.35;;
23402;SDS011;11874;48.228;11.684;2022-08-03T06:26:20;4.45;;;1.83;;
23402;SDS011;11874;48.228;11.684;2022-08-03T06:28:54;5.50;;;1.92;;
23402;SDS011;11874;48.228;11.684;2022-08-03T06:31:22;2.47;;;1.98;;
23402;SDS011;11874;48.228;11.684;2022-08-03T06:33:59;2.72;;;2.00;;
23402;SDS011;11874;48.228;11.684;2022-08-03T06:36:48;3.28;;;1.90;;
23402;SDS011;11874;48.228;11.684;2022-08-03T06:39:17;2.55;;;1.70;;
23402;SDS011;11874;48.228;11.684;2022-08-03T06:41:48;1.95;;;1.73;;
23402;SDS011;11874;48.228;11.684;2022-08-03T06:44:18;2.47;;;1.50;;
23402;SDS011;11874;48.228;11.684;2022-08-03T06:46:46;2.13;;;1.67;;
23402;SDS011;11874;48.228;11.684;2022-08-03T06:49:14;1.75;;;1.65;;
23402;SDS011;11874;48.228;11.684;2022-08-03T06:51:42;3.08;;;1.85;;
23402;SDS011;11874;48.228;11.684;2022-08-03T06:54:30;1.75;;;1.40;;
23402;SDS011;11874;48.228;11.684;2022-08-03T06:56:58;1.95;;;1.58;;
23402;SDS011;11874;48.228;11.684;2022-08-03T06:59:27;2.35;;;1.50;;
23402;SDS011;11874;48.228;11.684;2022-08-03T07:02:16;2.33;;;1.55;;
23402;SDS011;11874;48.228;11.684;2022-08-03T07:04:45;2.08;;;1.60;;
23402;SDS011;11874;48.228;11.684;2022-08-03T07:07:13;2.70;;;1.80;;
23402;SDS011;11874;48.228;11.684;2022-08-03T07:09:42;3.47;;;1.80;;
23402;SDS011;11874;48.228;11.684;2022-08-03T07:12:23;1.70;;;1.60;;
23402;SDS011;11874;48.228;11.684;2022-08-03T07:14:53;2.58;;;1.50;;
23402;SDS011;11874;48.228;11.684;2022-08-03T07:17:26;2.10;;;1.50;;
23402;SDS011;11874;48.228;11.684;2022-08-03T07:19:54;4.20;;;1.60;;
23402;SDS011;11874;48.228;11.684;2022-08-03T07:22:22;2.08;;;1.48;;
23402;SDS011;11874;48.228;11.684;2022-08-03T07:24:50;2.03;;;1.83;;
23402;SDS011;11874;48.228;11.684;2022-08-03T07:27:18;5.60;;;1.58;;
23402;SDS011;11874;48.228;11.684;2022-08-03T07:29:46;3.15;;;1.80;;
23402;SDS011;11874;48.228;11.684;2022-08-03T07:32:15;4.60;;;2.45;;
23402;SDS011;11874;48.228;11.684;2022-08-03T07:34:43;5.47;;;1.95;;
23402;SDS011;11874;48.228;11.684;2022-08-03T07:37:11;3.58;;;1.67;;
23402;SDS011;11874;48.228;11.684;2022-08-03T07:39:39;2.33;;;1.58;;
23402;SDS011;11874;48.228;11.684;2022-08-03T07:42:07;2.42;;;1.50;;
23402;SDS011;11874;48.228;11.684;2022-08-03T07:44:35;2.63;;;1.80;;
23402;SDS011;11874;48.228;11.684;2022-08-03T07:47:04;2.63;;;1.77;;
23402;SDS011;11874;48.228;11.684;2022-08-03T07:49:38;2.50;;;1.52;;
23402;SDS011;11874;48.228;11.684;2022-08-03T07:52:07;2.20;;;1.50;;
23402;SDS011;11874;48.228;11.684;2022-08-03T07:54:55;4.10;;;1.42;;
23402;SDS011;11874;48.228;11.684;2022-08-03T07:57:22;4.55;;;1.70;;
23402;SDS011;11874;48.228;11.684;2022-08-03T07:59:50;2.95;;;1.50;;
23402;SDS011;11874;48.228;11.684;2022-08-03T08:02:27;4.68;;;1.40;;
23402;SDS011;11874;48.228;11.684;2022-08-03T08:04:57;1.33;;;1.23;;
23402;SDS011;11874;48.228;11.684;2022-08-03T08:07:30;5.20;;;1.70;;
23402;SDS011;11874;48.228;11.684;2022-08-03T08:09:58;5.63;;;1.70;;
23402;SDS011;11874;48.228;11.684;2022-08-03T08:12:26;3.17;;;1.48;;
23402;SDS011;11874;48.228;11.684;2022-08-03T08:14:54;2.85;;;1.63;;
23402;SDS011;11874;48.228;11.684;2022-08-03T08:17:22;4.60;;;1.83;;
23402;SDS011;11874;48.228;11.684;2022-08-03T08:19:50;5.53;;;1.83;;
23402;SDS011;11874;48.228;11.684;2022-08-03T08:22:20;1.75;;;1.60;;
23402;SDS011;11874;48.228;11.684;2022-08-03T08:24:55;3.33;;;1.83;;
23402;SDS011;11874;48.228;11.684;2022-08-03T08:27:24;2.78;;;1.52;;
23402;SDS011;11874;48.228;11.684;2022-08-03T08:29:52;2.88;;;1.60;;
23402;SDS011;11874;48.228;11.684;2022-08-03T08:32:27;2.92;;;1.63;;
23402;SDS011;11874;48.228;11.684;2022-08-03T08:34:55;4.70;;;1.67;;
23402;SDS011;11874;48.228;11.684;2022-08-03T08:37:24;1.75;;;1.20;;
23402;SDS011;11874;48.228;11.684;2022-08-03T08:39:52;4.47;;;1.70;;
23402;SDS011;11874;48.228;11.684;2022-08-03T08:42:22;4.97;;;1.58;;
23402;SDS011;11874;48.228;11.684;2022-08-03T08:44:50;3.25;;;1.80;;
23402;SDS011;11874;48.228;11.684;2022-08-03T08:47:18;1.90;;;1.70;;
23402;SDS011;11874;48.228;11.684;2022-08-03T08:49:49;2.73;;;1.83;;
23402;SDS011;11874;48.228;11.684;2022-08-03T08:52:38;2.70;;;1.45;;
23402;SDS011;11874;48.228;11.684;2022-08-03T08:55:08;2.75;;;1.70;;
23402;SDS011;11874;48.228;11.684;2022-08-03T08:57:41;3.72;;;1.77;;
23402;SDS011;11874;48.228;11.684;2022-08-03T09:00:14;2.15;;;1.90;;
23402;SDS011;11874;48.228;11.684;2022-08-03T09:02:43;4.15;;;1.55;;
23402;SDS011;11874;48.228;11.684;2022-08-03T09:05:12;2.13;;;1.70;;
23402;SDS011;11874;48.228;11.684;2022-08-03T09:07:42;3.47;;;1.55;;
23402;SDS011;11874;48.228;11.684;2022-08-03T09:10:11;6.88;;;1.80;;
23402;SDS011;11874;48.228;11.684;2022-08-03T09:12:41;2.58;;;1.63;;
23402;SDS011;11874;48.228;11.684;2022-08-03T09:15:17;3.38;;;1.85;;
23402;SDS011;11874;48.228;11.684;2022-08-03T09:17:46;1.63;;;1.30;;
23402;SDS011;11874;48.228;11.684;2022-08-03T09:20:16;6.43;;;1.90;;
23402;SDS011;11874;48.228;11.684;2022-08-03T09:22:54;3.17;;;1.60;;
23402;SDS011;11874;48.228;11.684;2022-08-03T09:25:28;4.05;;;1.60;;
23402;SDS011;11874;48.228;11.684;2022-08-03T09:28:04;2.03;;;1.70;;
23402;SDS011;11874;48.228;11.684;2022-08-03T09:30:35;2.15;;;1.35;;
23402;SDS011;11874;48.228;11.684;2022-08-03T09:33:05;3.17;;;1.30;;
23402;SDS011;11874;48.228;11.684;2022-08-03T09:35:41;2.92;;;1.42;;
23402;SDS011;11874;48.228;11.684;2022-08-03T09:38:21;1.50;;;1.40;;
23402;SDS011;11874;48.228;11.684;2022-08-03T09:43:25;2.72;;;1.60;;
23402;SDS011;11874;48.228;11.684;2022-08-03T09:46:00;3.28;;;1.70;;
23402;SDS011;11874;48.228;11.684;2022-08-03T09:48:29;3.00;;;1.48;;
23402;SDS011;11874;48.228;11.684;2022-08-03T09:51:00;2.25;;;1.33;;
23402;SDS011;11874;48.228;11.684;2022-08-03T09:53:51;5.32;;;1.80;;
23402;SDS011;11874;48.228;11.684;2022-08-03T09:56:36;4.35;;;1.83;;
23402;SDS011;11874;48.228;11.684;2022-08-03T09:59:05;1.40;;;1.30;;
23402;SDS011;11874;48.228;11.684;2022-08-03T10:01:33;1.75;;;1.55;;
23402;SDS011;11874;48.228;11.684;2022-08-03T10:04:02;5.43;;;1.75;;
23402;SDS011;11874;48.228;11.684;2022-08-03T10:06:30;4.07;;;1.35;;
23402;SDS011;11874;48.228;11.684;2022-08-03T10:09:06;2.25;;;1.40;;
23402;SDS011;11874;48.228;11.684;2022-08-03T10:11:36;6.20;;;1.80;;
23402;SDS011;11874;48.228;11.684;2022-08-03T10:14:07;1.80;;;1.13;;
23402;SDS011;11874;48.228;11.684;2022-08-03T10:16:44;1.98;;;1.80;;
23402;SDS011;11874;48.228;11.684;2022-08-03T10:19:13;2.28;;;1.30;;
23402;SDS011;11874;48.228;11.684;2022-08-03T10:21:42;3.13;;;1.60;;
23402;SDS011;11874;48.228;11.684;2022-08-03T10:24:19;4.40;;;1.27;;
23402;SDS011;11874;48.228;11.684;2022-08-03T10:26:52;2.22;;;1.58;;
23402;SDS011;11874;48.228;11.684;2022-08-03T10:29:27;3.80;;;1.50;;
23402;SDS011;11874;48.228;11.684;2022-08-03T10:31:57;2.80;;;1.40;;
23402;SDS011;11874;48.228;11.684;2022-08-03T10:34:28;1.83;;;1.30;;
23402;SDS011;11874;48.228;11.684;2022-08-03T10:37:06;2.15;;;1.05;;
23402;SDS011;11874;48.228;11.684;2022-08-03T10:39:38;1.55;;;1.45;;
23402;SDS011;11874;48.228;11.684;2022-08-03T10:42:19;3.28;;;1.63;;
23402;SDS011;11874;48.228;11.684;2022-08-03T10:44:52;1.80;;;1.13;;
23402;SDS011;11874;48.228;11.684;2022-08-03T10:47:27;1.98;;;1.05;;
23402;SDS011;11874;48.228;11.684;2022-08-03T10:49:56;4.60;;;1.27;;
23402;SDS011;11874;48.228;11.684;2022-08-03T10:52:25;1.58;;;1.25;;
23402;SDS011;11874;48.228;11.684;2022-08-03T10:54:59;3.70;;;3.40;;
23402;SDS011;11874;48.228;11.684;2022-08-03T10:57:47;9.55;;;8.55;;
23402;SDS011;11874;48.228;11.684;2022-08-03T11:00:24;3.95;;;3.22;;
23402;SDS011;11874;48.228;11.684;2022-08-03T11:03:02;5.07;;;2.73;;
23402;SDS011;11874;48.228;11.684;2022-08-03T11:05:32;3.67;;;3.13;;
23402;SDS011;11874;48.228;11.684;2022-08-03T11:08:18;3.10;;;2.30;;
23402;SDS011;11874;48.228;11.684;2022-08-03T11:10:56;2.60;;;1.60;;
23402;SDS011;11874;48.228;11.684;2022-08-03T11:13:26;2.45;;;1.90;;
23402;SDS011;11874;48.228;11.684;2022-08-03T11:15:58;2.03;;;1.60;;
23402;SDS011;11874;48.228;11.684;2022-08-03T11:18:31;1.48;;;1.38;;
23402;SDS011;11874;48.228;11.684;2022-08-03T11:21:01;2.65;;;1.30;;
23402;SDS011;11874;48.228;11.684;2022-08-03T11:23:39;2.55;;;1.00;;
23402;SDS011;11874;48.228;11.684;2022-08-03T11:26:32;2.22;;;1.05;;
23402;SDS011;11874;48.228;11.684;2022-08-03T11:31:54;1.00;;;1.00;;
23402;SDS011;11874;48.228;11.684;2022-08-03T11:34:22;1.38;;;1.27;;
23402;SDS011;11874;48.228;11.684;2022-08-03T11:39:52;2.35;;;1.02;;
23402;SDS011;11874;48.228;11.684;2022-08-03T11:42:38;2.58;;;1.05;;
23402;SDS011;11874;48.228;11.684;2022-08-03T11:45:13;2.97;;;1.10;;
23402;SDS011;11874;48.228;11.684;2022-08-03T11:47:41;1.00;;;0.90;;
23402;SDS011;11874;48.228;11.684;2022-08-03T11:50:16;4.95;;;1.20;;
23402;SDS011;11874;48.228;11.684;2022-08-03T11:52:46;2.17;;;1.20;;
23402;SDS011;11874;48.228;11.684;2022-08-03T11:55:16;1.30;;;1.20;;
23402;SDS011;11874;48.228;11.684;2022-08-03T11:57:46;1.67;;;1.20;;
23402;SDS011;11874;48.228;11.684;2022-08-03T12:00:34;1.88;;;1.13;;
23402;SDS011;11874;48.228;11.684;2022-08-03T12:03:04;3.20;;;1.00;;
23402;SDS011;11874;48.228;11.684;2022-08-03T12:05:34;6.27;;;1.33;;
23402;SDS011;11874;48.228;11.684;2022-08-03T12:08:04;3.10;;;1.25;;
23402;SDS011;11874;48.228;11.684;2022-08-03T12:10:33;2.17;;;1.00;;
23402;SDS011;11874;48.228;11.684;2022-08-03T12:13:03;3.05;;;1.10;;
23402;SDS011;11874;48.228;11.684;2022-08-03T12:15:54;4.57;;;1.42;;
23402;SDS011;11874;48.228;11.684;2022-08-03T12:18:24;1.55;;;1.20;;
23402;SDS011;11874;48.228;11.684;2022-08-03T12:20:52;1.73;;;1.08;;
23402;SDS011;11874;48.228;11.684;2022-08-03T12:23:29;5.05;;;1.17;;
23402;SDS011;11874;48.228;11.684;2022-08-03T12:26:03;1.20;;;1.08;;
23402;SDS011;11874;48.228;11.684;2022-08-03T12:28:34;3.58;;;1.30;;
23402;SDS011;11874;48.228;11.684;2022-08-03T12:31:04;2.38;;;1.30;;
23402;SDS011;11874;48.228;11.684;2022-08-03T12:36:29;1.20;;;1.10;;
23402;SDS011;11874;48.228;11.684;2022-08-03T12:38:58;4.95;;;1.55;;
23402;SDS011;11874;48.228;11.684;2022-08-03T12:41:28;1.65;;;1.33;;
23402;SDS011;11874;48.228;11.684;2022-08-03T12:46:30;2.85;;;1.10;;
23402;SDS011;11874;48.228;11.684;2022-08-03T12:49:00;3.53;;;1.30;;
23402;SDS011;11874;48.228;11.684;2022-08-03T12:51:31;1.73;;;1.27;;
23402;SDS011;11874;48.228;11.684;2022-08-03T12:54:01;2.03;;;1.13;;
23402;SDS011;11874;48.228;11.684;2022-08-03T12:56:30;1.38;;;1.20;;
23402;SDS011;11874;48.228;11.684;2022-08-03T12:58:57;3.78;;;1.23;;
23402;SDS011;11874;48.228;11.684;2022-08-03T13:01:27;2.63;;;1.25;;
23402;SDS011;11874;48.228;11.684;2022-08-03T13:04:27;1.77;;;1.27;;
23402;SDS011;11874;48.228;11.684;2022-08-03T13:06:58;2.50;;;1.23;;
23402;SDS011;11874;48.228;11.684;2022-08-03T13:09:28;1.40;;;1.30;;
23402;SDS011;11874;48.228;11.684;2022-08-03T13:12:07;2.97;;;1.30;;
23402;SDS011;11874;48.228;11.684;2022-08-03T13:14:36;1.20;;;1.10;;
23402;SDS011;11874;48.228;11.684;2022-08-03T13:17:05;2.42;;;1.20;;
23402;SDS011;11874;48.228;11.684;2022-08-03T13:19:33;5.47;;;1.60;;
23402;SDS011;11874;48.228;11.684;2022-08-03T13:22:09;2.08;;;1.40;;
23402;SDS011;11874;48.228;11.684;2022-08-03T13:24:38;3.20;;;1.20;;
23402;SDS011;11874;48.228;11.684;2022-08-03T13:27:06;3.15;;;1.65;;
23402;SDS011;11874;48.228;11.684;2022-08-03T13:29:55;5.60;;;1.30;;
23402;SDS011;11874;48.228;11.684;2022-08-03T13:32:24;1.77;;;1.55;;
23402;SDS011;11874;48.228;11.684;2022-08-03T13:34:52;3.40;;;1.45;;
23402;SDS011;11874;48.228;11.684;2022-08-03T13:37:20;2.03;;;1.48;;
23402;SDS011;11874;48.228;11.684;2022-08-03T13:39:48;1.50;;;1.35;;
23402;SDS011;11874;48.228;11.684;2022-08-03T13:42:25;2.63;;;1.38;;
23402;SDS011;11874;48.228;11.684;2022-08-03T13:44:54;2.60;;;1.20;;
23402;SDS011;11874;48.228;11.684;2022-08-03T13:47:22;1.52;;;1.30;;
23402;SDS011;11874;48.228;11.684;2022-08-03T13:49:51;5.70;;;1.30;;
23402;SDS011;11874;48.228;11.684;2022-08-03T13:52:28;2.20;;;1.10;;
23402;SDS011;11874;48.228;11.684;2022-08-03T13:54:57;1.38;;;0.93;;
23402;SDS011;11874;48.228;11.684;2022-08-03T13:57:25;2.13;;;1.40;;
23402;SDS011;11874;48.228;11.684;2022-08-03T14:00:13;5.15;;;1.25;;
23402;SDS011;11874;48.228;11.684;2022-08-03T14:02:51;2.17;;;1.45;;
23402;SDS011;11874;48.228;11.684;2022-08-03T14:05:29;1.30;;;1.20;;
23402;SDS011;11874;48.228;11.684;2022-08-03T14:07:57;2.58;;;1.30;;
23402;SDS011;11874;48.228;11.684;2022-08-03T14:10:30;4.72;;;1.45;;
23402;SDS011;11874;48.228;11.684;2022-08-03T14:12:58;2.13;;;1.17;;
23402;SDS011;11874;48.228;11.684;2022-08-03T14:15:26;1.45;;;1.20;;
23402;SDS011;11874;48.228;11.684;2022-08-03T14:17:54;3.97;;;1.23;;
23402;SDS011;11874;48.228;11.684;2022-08-03T14:20:24;1.95;;;1.20;;
23402;SDS011;11874;48.228;11.684;2022-08-03T14:23:06;2.97;;;1.30;;
23402;SDS011;11874;48.228;11.684;2022-08-03T14:25:33;1.10;;;1.00;;
23402;SDS011;11874;48.228;11.684;2022-08-03T14:28:16;3.63;;;1.25;;
23402;SDS011;11874;48.228;11.684;2022-08-03T14:30:44;4.10;;;1.40;;
23402;SDS011;11874;48.228;11.684;2022-08-03T14:33:13;1.88;;;1.00;;
23402;SDS011;11874;48.228;11.684;2022-08-03T14:35:40;2.28;;;1.00;;
23402;SDS011;11874;48.228;11.684;2022-08-03T14:38:10;1.65;;;1.20;;
23402;SDS011;11874;48.228;11.684;2022-08-03T14:40:38;4.07;;;1.13;;
23402;SDS011;11874;48.228;11.684;2022-08-03T14:43:05;2.65;;;1.58;;
23402;SDS011;11874;48.228;11.684;2022-08-03T14:45:33;3.13;;;1.15;;
23402;SDS011;11874;48.228;11.684;2022-08-03T14:48:01;2.60;;;1.23;;
23402;SDS011;11874;48.228;11.684;2022-08-03T14:50:50;1.48;;;1.10;;
23402;SDS011;11874;48.228;11.684;2022-08-03T14:53:21;1.42;;;1.30;;
23402;SDS011;11874;48.228;11.684;2022-08-03T14:55:49;1.67;;;1.08;;
23402;SDS011;11874;48.228;11.684;2022-08-03T14:58:18;5.88;;;1.60;;
23402;SDS011;11874;48.228;11.684;2022-08-03T15:00:47;2.80;;;1.10;;
23402;SDS011;11874;48.228;11.684;2022-08-03T15:03:16;2.38;;;1.30;;
23402;SDS011;11874;48.228;11.684;2022-08-03T15:05:45;1.33;;;1.00;;
23402;SDS011;11874;48.228;11.684;2022-08-03T15:08:13;2.03;;;1.38;;
23402;SDS011;11874;48.228;11.684;2022-08-03T15:10:42;3.00;;;1.05;;
23402;SDS011;11874;48.228;11.684;2022-08-03T15:13:11;3.28;;;1.85;;
23402;SDS011;11874;48.228;11.684;2022-08-03T15:15:39;2.47;;;1.25;;